Hearne, TX

5:47 AM CDT on April 21, 2018 (GMT -0500)
Hearne

Weather History for KLHB - November, 2013

Change the Weather History Date:

Tuesday, November 12, 2013

  Actual Average (KCLL) Record (KCLL)
Temperature  
Mean Temperature 50 °F -  
Max Temperature 59 °F 68 °F 86 °F (1955)
Min Temperature 40 °F 50 °F 25 °F (1950)
Degree Days  
Heating Degree Days 16    
Moisture  
Dew Point 42 °F    
Average Humidity 73    
Maximum Humidity 94    
Minimum Humidity 54    
Precipitation  
Precipitation 0.00 in - - ()
Sea Level Pressure  
Sea Level Pressure 30.47 in    
Wind  
Wind Speed 8 mph (NNW)    
Max Wind Speed 24 mph    
Max Gust Speed 32 mph    
Visibility 10 miles    
Events      
Averages and records for this station are not official NWS values.
T = Trace of Precipitation, MM = Missing Value Source: NWS Daily Summary

Daily Weather History Graph

Daily Weather History Graph

Search for Another Location

Airport or City:

Astronomy

Nov. 12, 2013 Rise Set
Actual Time 6:50 AM CST 5:30 PM CST
Civil Twilight 6:25 AM CST 5:55 PM CST
Nautical Twilight 5:56 AM CST 6:24 PM CST
Astronomical Twilight 5:27 AM CST 6:53 PM CST
Moon 2:28 PM CST (11/12) 2:01 AM CST (11/12)
Length of Visible Light 11h 30m
Length of Day
10h 39m
Waxing Gibbous, 76% of the Moon is Illuminated
Nov 12
Waxing Gibbous
Nov 17
Full
Nov 25
Last Quarter
Dec 2
New
Dec 9
First Quarter

Hourly Weather History & Observations

Time (CST) Temp. Windchill Dew Point Humidity Pressure Visibility Wind Dir Wind Speed Gust Speed Precip Events Conditions
12:15 AM 51.4 °F - 49.6 °F 94% 30.27 in 10.0 mi Calm Calm - N/A   Clear
12:35 AM 51.1 °F - 49.3 °F 94% 30.27 in 10.0 mi Calm Calm - N/A   Clear
12:55 AM 50.9 °F - 49.1 °F 94% 30.27 in 10.0 mi Calm Calm - N/A   Clear
1:15 AM 49.3 °F - 47.7 °F 94% 30.28 in 10.0 mi Calm Calm - N/A   Clear
1:35 AM 49.6 °F - 47.7 °F 93% 30.28 in 10.0 mi Calm Calm - N/A   Clear
1:55 AM 50.0 °F - 48.4 °F 94% 30.28 in 10.0 mi Calm Calm - N/A   Clear
2:15 AM 49.3 °F - 47.7 °F 94% 30.28 in 10.0 mi Calm Calm - N/A   Clear
2:35 AM 49.3 °F - 47.5 °F 94% 30.29 in 10.0 mi Calm Calm - N/A   Clear
2:55 AM 49.1 °F - 47.3 °F 93% 30.29 in 10.0 mi West 3.5 mph - N/A   Clear
3:15 AM 49.3 °F - 47.1 °F 92% 30.30 in 10.0 mi Calm Calm - N/A   Clear
3:35 AM 49.6 °F - 47.7 °F 93% 30.30 in 10.0 mi WNW 5.8 mph - N/A   Clear
3:55 AM 49.6 °F - 47.7 °F 93% 30.31 in 10.0 mi WNW 3.5 mph - N/A   Clear
4:15 AM 49.3 °F - 47.3 °F 93% 30.31 in 10.0 mi Calm Calm - N/A   Clear
4:35 AM 49.1 °F - 47.1 °F 93% 30.31 in 10.0 mi Calm Calm - N/A   Clear
4:55 AM 48.9 °F - 47.1 °F 93% 30.32 in 10.0 mi Calm Calm - N/A   Clear
5:15 AM 47.7 °F - 45.9 °F 93% 30.33 in 7.0 mi WNW 3.5 mph - N/A   Clear
5:35 AM 49.1 °F - 47.3 °F 93% 30.34 in 10.0 mi WNW 4.6 mph - N/A   Clear
5:55 AM 49.1 °F - 47.3 °F 93% 30.34 in 10.0 mi WNW 4.6 mph - N/A   Clear
6:15 AM 49.3 °F - 47.3 °F 93% 30.35 in 10.0 mi NW 4.6 mph - N/A   Clear
6:35 AM 50.0 °F - 48.2 °F 94% 30.37 in 10.0 mi NNW 5.8 mph - N/A   Clear
6:55 AM 49.6 °F - 47.3 °F 92% 30.37 in 10.0 mi NNW 4.6 mph - N/A   Clear
7:15 AM 51.3 °F - 48.9 °F 92% 30.39 in 10.0 mi NNW 8.1 mph - N/A   Clear
7:35 AM 55.6 °F - 51.8 °F 87% 30.40 in 10.0 mi North 12.7 mph - N/A   Clear
7:55 AM 57.4 °F - 53.6 °F 87% 30.42 in 10.0 mi North 13.8 mph 23.0 mph N/A   Scattered Clouds
8:15 AM 58.3 °F - 54.7 °F 88% 30.43 in 10.0 mi North 13.8 mph 18.4 mph N/A   Overcast
8:35 AM 58.5 °F - 54.5 °F 87% 30.44 in 10.0 mi NNW 20.7 mph 26.5 mph N/A   Overcast
8:55 AM 56.8 °F - 52.7 °F 86% 30.45 in 10.0 mi NNW 23.0 mph 32.2 mph N/A   Overcast
9:15 AM 55.2 °F - 50.9 °F 85% 30.47 in 10.0 mi North 18.4 mph 31.1 mph N/A   Overcast
9:35 AM 54.1 °F - 49.1 °F 83% 30.48 in 10.0 mi NNW 23.0 mph 29.9 mph N/A   Overcast
9:55 AM 53.4 °F - 47.3 °F 80% 30.49 in 10.0 mi NNW 23.0 mph 32.2 mph N/A   Overcast
10:15 AM 53.6 °F - 46.6 °F 77% 30.50 in 10.0 mi NNW 24.2 mph 32.2 mph N/A   Overcast
10:35 AM 54.0 °F - 46.6 °F 76% 30.51 in 10.0 mi North 20.7 mph 31.1 mph N/A   Overcast
10:55 AM 54.0 °F - 46.2 °F 75% 30.51 in 10.0 mi NNW 20.7 mph 31.1 mph N/A   Overcast
11:15 AM 54.1 °F - 46.4 °F 75% 30.51 in 10.0 mi NNW 23.0 mph 29.9 mph N/A   Overcast
11:35 AM 53.6 °F - 45.0 °F 73% 30.52 in 10.0 mi NNW 21.9 mph 32.2 mph N/A   Overcast
11:55 AM 54.0 °F - 44.8 °F 71% 30.51 in 10.0 mi NNW 19.6 mph 26.5 mph N/A   Overcast
12:15 PM 54.0 °F - 43.9 °F 69% 30.51 in 10.0 mi North 20.7 mph 28.8 mph N/A   Overcast
12:35 PM 54.0 °F - 43.5 °F 68% 30.50 in 10.0 mi North 17.3 mph 23.0 mph N/A   Overcast
12:55 PM 55.0 °F - 43.9 °F 66% 30.50 in 10.0 mi NNW 15.0 mph 24.2 mph N/A   Overcast
1:15 PM 55.8 °F - 44.1 °F 65% 30.49 in 10.0 mi North 12.7 mph - N/A   Overcast
1:35 PM 57.2 °F - 43.9 °F 61% 30.49 in 10.0 mi NNW 18.4 mph 23.0 mph N/A   Overcast
1:55 PM 57.4 °F - 43.5 °F 60% 30.49 in 10.0 mi NNW 13.8 mph 23.0 mph N/A   Overcast
2:15 PM 59.0 °F - 43.3 °F 56% 30.49 in 10.0 mi NNW 18.4 mph 29.9 mph N/A   Mostly Cloudy
2:35 PM 58.8 °F - 43.0 °F 56% 30.49 in 10.0 mi NNW 18.4 mph 24.2 mph N/A   Scattered Clouds
2:55 PM 58.8 °F - 42.4 °F 55% 30.49 in 10.0 mi North 16.1 mph 24.2 mph N/A   Scattered Clouds
3:15 PM 58.3 °F - 42.3 °F 55% 30.50 in 10.0 mi North 13.8 mph 19.6 mph N/A   Scattered Clouds
3:35 PM 57.9 °F - 41.9 °F 55% 30.51 in 10.0 mi North 17.3 mph 24.2 mph N/A   Scattered Clouds
3:55 PM 57.2 °F - 41.4 °F 55% 30.51 in 10.0 mi NNW 17.3 mph 20.7 mph N/A   Clear
4:15 PM 56.7 °F - 40.8 °F 55% 30.51 in 10.0 mi NNW 18.4 mph 25.3 mph N/A   Clear
4:35 PM 55.6 °F - 40.3 °F 56% 30.52 in 10.0 mi NNW 13.8 mph 21.9 mph N/A   Clear
4:55 PM 55.4 °F - 40.1 °F 56% 30.52 in 10.0 mi NNW 15.0 mph 18.4 mph N/A   Mostly Cloudy
5:15 PM 54.5 °F - 39.6 °F 57% 30.53 in 10.0 mi North 12.7 mph 21.9 mph N/A   Overcast
5:35 PM 54.0 °F - 40.5 °F 60% 30.54 in 10.0 mi NNW 9.2 mph - N/A   Overcast
5:55 PM 53.4 °F - 39.7 °F 60% 30.55 in 10.0 mi NNW 11.5 mph - N/A   Overcast
6:15 PM 52.0 °F - 37.9 °F 59% 30.56 in 10.0 mi NNW 9.2 mph - N/A   Overcast
6:35 PM 50.9 °F - 36.1 °F 57% 30.57 in 10.0 mi NNW 13.8 mph - N/A   Overcast
6:55 PM 50.0 °F - 35.1 °F 57% 30.57 in 10.0 mi NNW 13.8 mph - N/A   Overcast
7:15 PM 48.7 °F - 33.4 °F 56% 30.58 in 10.0 mi NNW 11.5 mph - N/A   Mostly Cloudy
7:35 PM 48.2 °F - 32.2 °F 54% 30.59 in 10.0 mi NNW 10.4 mph - N/A   Scattered Clouds
7:55 PM 47.3 °F - 31.6 °F 55% 30.60 in 10.0 mi NNW 10.4 mph 18.4 mph N/A   Clear
8:15 PM 45.7 °F 42.0 °F 31.8 °F 58% 30.61 in 10.0 mi NNW 6.9 mph - N/A   Clear
8:35 PM 45.0 °F 41.2 °F 31.5 °F 59% 30.62 in 10.0 mi NNW 6.9 mph - N/A   Scattered Clouds
8:55 PM 44.8 °F 39.9 °F 30.9 °F 58% 30.62 in 10.0 mi NNW 9.2 mph - N/A   Mostly Cloudy
9:15 PM 44.1 °F 39.0 °F 30.0 °F 58% 30.63 in 10.0 mi NNW 9.2 mph - N/A   Scattered Clouds
9:35 PM 43.5 °F 38.3 °F 29.5 °F 58% 30.63 in 10.0 mi NNW 9.2 mph - N/A   Clear
9:55 PM 43.5 °F 38.3 °F 28.8 °F 56% 30.64 in 10.0 mi NNW 9.2 mph - N/A   Scattered Clouds
10:15 PM 43.3 °F 37.7 °F 28.2 °F 55% 30.64 in 10.0 mi NNW 10.4 mph - N/A   Mostly Cloudy
10:35 PM 43.3 °F 37.2 °F 27.7 °F 54% 30.64 in 10.0 mi NNW 11.5 mph 17.3 mph N/A   Overcast
10:55 PM 42.1 °F 36.6 °F 27.5 °F 56% 30.65 in 10.0 mi NNW 9.2 mph - N/A   Scattered Clouds
11:15 PM 41.0 °F 35.2 °F 27.7 °F 59% 30.65 in 10.0 mi NNW 9.2 mph - N/A   Clear
11:35 PM 40.3 °F 34.4 °F 28.0 °F 62% 30.64 in 10.0 mi NNW 9.2 mph - N/A   Clear
11:55 PM 40.1 °F 33.6 °F 27.7 °F 61% 30.64 in 10.0 mi North 10.4 mph - N/A   Clear